createdAt,value
2022-10-22T00:00:18.546Z,8.42
2022-10-22T00:02:45.570Z,8.51
2022-10-22T00:05:12.584Z,8.48
2022-10-22T00:07:40.820Z,8.47
2022-10-22T00:10:11.270Z,8.43
2022-10-22T00:12:39.618Z,8.58
2022-10-22T00:15:07.051Z,8.56
2022-10-22T00:17:33.987Z,8.39
2022-10-22T00:20:00.966Z,8.45
2022-10-22T00:22:30.219Z,8.46
2022-10-22T00:24:57.424Z,8.44
2022-10-22T00:27:24.277Z,8.46
2022-10-22T00:29:51.207Z,8.62
2022-10-22T00:32:18.987Z,8.52
2022-10-22T00:34:46.032Z,8.52
2022-10-22T00:37:13.068Z,8.27
2022-10-22T00:39:40.242Z,8.32
2022-10-22T00:42:07.284Z,8.17
2022-10-22T00:45:11.536Z,8.15
2022-10-22T00:47:40.944Z,8.18
2022-10-22T00:50:11.863Z,8.27
2022-10-22T00:52:40.465Z,8.23
2022-10-22T00:55:08.598Z,8.15
2022-10-22T00:57:40.030Z,8.14
2022-10-22T01:00:07.637Z,8.07
2022-10-22T01:02:34.631Z,7.91
2022-10-22T01:05:01.779Z,7.85
2022-10-22T01:07:31.095Z,7.73
2022-10-22T01:10:32.004Z,7.54
2022-10-22T01:13:46.715Z,7.48
2022-10-22T01:16:37.638Z,7.04
2022-10-22T01:19:36.061Z,6.69
2022-10-22T01:22:25.869Z,6.57
2022-10-22T01:25:22.152Z,6.39
2022-10-22T01:28:11.453Z,5.97
2022-10-22T01:30:40.471Z,5.70
2022-10-22T01:33:11.540Z,5.72
2022-10-22T01:35:42.583Z,5.95
2022-10-22T01:38:14.190Z,6.01
2022-10-22T01:40:42.879Z,5.85
2022-10-22T01:43:11.357Z,5.91
2022-10-22T01:45:50.613Z,6.06
2022-10-22T01:48:35.058Z,6.04
2022-10-22T01:51:24.094Z,5.98
2022-10-22T01:53:57.790Z,5.90
2022-10-22T01:56:32.445Z,5.74
2022-10-22T01:59:37.633Z,5.69
2022-10-22T02:02:19.367Z,5.81
2022-10-22T02:04:54.557Z,6.01
2022-10-22T02:07:26.924Z,5.92
2022-10-22T02:09:56.219Z,5.88
2022-10-22T02:12:25.717Z,5.97
2022-10-22T02:14:53.903Z,5.89
2022-10-22T02:17:23.036Z,5.95
2022-10-22T02:20:06.665Z,6.03
2022-10-22T02:22:34.373Z,5.94
2022-10-22T02:25:01.419Z,6.04
2022-10-22T02:28:13.518Z,6.10
2022-10-22T02:30:44.253Z,6.06
2022-10-22T02:33:14.127Z,6.16
2022-10-22T02:35:43.160Z,6.19
2022-10-22T02:38:13.699Z,6.26
2022-10-22T02:40:40.846Z,6.17
2022-10-22T02:43:07.852Z,6.28
2022-10-22T02:45:35.599Z,6.20
2022-10-22T02:48:03.077Z,6.22
2022-10-22T02:50:30.394Z,6.20
2022-10-22T02:52:57.410Z,6.40
2022-10-22T02:55:24.241Z,6.55
2022-10-22T02:57:51.059Z,6.51
2022-10-22T03:00:18.002Z,6.60
2022-10-22T03:02:44.911Z,6.36
2022-10-22T03:05:13.835Z,6.40
2022-10-22T03:07:41.764Z,6.24
2022-10-22T03:10:10.431Z,6.32
2022-10-22T03:12:39.580Z,6.21
2022-10-22T03:15:08.941Z,6.17
2022-10-22T03:17:36.383Z,5.99
2022-10-22T03:20:04.169Z,6.01
2022-10-22T03:22:32.669Z,6.08
2022-10-22T03:25:07.894Z,6.22
2022-10-22T03:27:38.913Z,6.23
2022-10-22T03:30:08.785Z,6.10
2022-10-22T03:32:35.663Z,6.04
2022-10-22T03:35:02.608Z,5.97
2022-10-22T03:37:31.957Z,5.77
2022-10-22T03:39:59.269Z,5.66
2022-10-22T03:42:26.343Z,5.75
2022-10-22T03:44:53.489Z,5.61
2022-10-22T03:47:20.386Z,5.62
2022-10-22T03:49:47.186Z,5.57
2022-10-22T03:52:15.205Z,5.49
2022-10-22T03:54:42.754Z,5.48
2022-10-22T03:57:10.401Z,5.54
2022-10-22T03:59:47.825Z,5.49
2022-10-22T04:02:14.833Z,5.55
2022-10-22T04:04:41.668Z,5.51
2022-10-22T04:07:09.353Z,5.62
2022-10-22T04:09:36.313Z,5.63
2022-10-22T04:12:05.572Z,5.73
2022-10-22T04:14:32.563Z,5.67
2022-10-22T04:16:59.555Z,5.55
2022-10-22T04:19:26.639Z,5.57
2022-10-22T04:21:53.476Z,5.62
2022-10-22T04:24:20.532Z,5.49
2022-10-22T04:26:47.766Z,5.44
2022-10-22T04:29:16.211Z,5.39
2022-10-22T04:31:43.735Z,5.57
2022-10-22T04:34:10.688Z,5.53
2022-10-22T04:36:38.089Z,5.51
2022-10-22T04:39:05.973Z,5.55
2022-10-22T04:41:37.306Z,5.48
2022-10-22T04:44:05.426Z,5.64
2022-10-22T04:46:37.338Z,5.67
2022-10-22T04:49:04.907Z,5.85
2022-10-22T04:51:33.834Z,6.22
2022-10-22T04:54:00.733Z,6.39
2022-10-22T04:56:30.391Z,6.57
2022-10-22T04:58:58.225Z,6.52
2022-10-22T05:01:28.473Z,6.31
2022-10-22T05:03:58.115Z,6.14
2022-10-22T05:06:26.393Z,5.92
2022-10-22T05:08:57.420Z,5.92
2022-10-22T05:11:28.673Z,5.92
2022-10-22T05:13:57.506Z,5.75
2022-10-22T05:16:25.376Z,5.89
2022-10-22T05:18:54.020Z,6.05
2022-10-22T05:21:21.875Z,6.19
2022-10-22T05:23:50.631Z,6.38
2022-10-22T05:26:21.913Z,6.32
2022-10-22T05:28:50.530Z,6.73
2022-10-22T05:31:18.602Z,6.86
2022-10-22T05:33:48.275Z,6.81
2022-10-22T05:36:25.545Z,6.99
2022-10-22T05:38:54.117Z,6.97
2022-10-22T05:41:24.475Z,7.00
2022-10-22T05:43:54.266Z,6.98
2022-10-22T05:46:23.242Z,6.85
2022-10-22T05:48:52.049Z,6.87
2022-10-22T05:51:20.112Z,7.05
2022-10-22T05:53:54.587Z,7.08
2022-10-22T05:56:22.787Z,7.25
2022-10-22T05:58:50.407Z,7.37
2022-10-22T06:01:21.414Z,7.60
2022-10-22T06:03:58.456Z,7.74
2022-10-22T06:06:47.630Z,7.85
2022-10-22T06:09:25.235Z,8.33
2022-10-22T06:11:54.269Z,8.50
2022-10-22T06:14:22.444Z,8.55
2022-10-22T06:16:50.781Z,8.78
2022-10-22T06:19:21.408Z,8.99
2022-10-22T06:21:51.875Z,9.09
2022-10-22T06:24:19.313Z,9.16
2022-10-22T06:26:51.285Z,9.43
2022-10-22T06:29:20.745Z,9.58
2022-10-22T06:31:48.575Z,9.63
2022-10-22T06:34:20.862Z,9.74
2022-10-22T06:36:48.316Z,9.74
2022-10-22T06:39:20.822Z,9.80
2022-10-22T06:41:54.418Z,10.01
2022-10-22T06:44:21.981Z,10.20
2022-10-22T06:46:54.271Z,10.44
2022-10-22T06:52:04.561Z,10.78
2022-10-22T06:54:37.587Z,10.99
2022-10-22T09:59:48.051Z,15.66
2022-10-22T10:02:37.400Z,16.06
2022-10-22T10:05:07.268Z,16.13
2022-10-22T10:07:36.018Z,16.17
2022-10-22T10:10:03.848Z,16.11
2022-10-22T10:12:57.556Z,15.98
2022-10-22T10:15:29.561Z,16.13
2022-10-22T10:18:18.984Z,16.26
2022-10-22T10:24:11.723Z,16.59
2022-10-22T10:26:55.188Z,16.63
2022-10-22T10:29:52.561Z,16.80
2022-10-22T10:32:41.456Z,16.56
2022-10-22T10:35:29.857Z,16.53
2022-10-22T10:38:23.546Z,16.70
2022-10-22T10:41:25.378Z,16.90
2022-10-22T10:44:17.394Z,17.23
2022-10-22T10:47:01.097Z,17.48
2022-10-22T10:49:33.204Z,17.63
2022-10-22T10:52:02.773Z,17.54
2022-10-22T10:55:09.646Z,17.63
2022-10-22T10:57:50.449Z,17.75
2022-10-22T11:00:23.043Z,17.90
2022-10-22T11:03:36.481Z,18.08
2022-10-22T11:06:09.889Z,18.11
2022-10-22T11:08:59.963Z,18.15
2022-10-22T11:11:42.048Z,18.22
2022-10-22T11:14:25.252Z,18.19
2022-10-22T11:17:02.234Z,18.34
2022-10-22T11:19:51.242Z,18.40
2022-10-22T11:22:28.844Z,18.31
2022-10-22T11:25:03.595Z,18.38
2022-10-22T11:27:48.818Z,18.21
2022-10-22T11:30:23.423Z,18.16
2022-10-22T11:32:55.189Z,18.19
2022-10-22T11:35:42.580Z,18.04
2022-10-22T11:38:36.844Z,18.09
2022-10-22T11:41:16.051Z,18.15
2022-10-22T11:44:13.413Z,17.85
2022-10-22T11:46:47.631Z,17.67
2022-10-22T11:49:14.754Z,17.87
2022-10-22T11:51:47.159Z,17.91
2022-10-22T11:54:43.245Z,17.94
2022-10-22T11:57:19.748Z,17.97
2022-10-22T12:00:00.875Z,17.92
2022-10-22T12:02:45.564Z,18.01
2022-10-22T12:05:32.916Z,17.93
2022-10-22T12:08:06.605Z,17.86
2022-10-22T12:10:48.594Z,17.89
2022-10-22T12:13:24.063Z,17.85
2022-10-22T12:15:54.926Z,17.83
2022-10-22T12:18:27.631Z,18.00
2022-10-22T12:20:55.448Z,18.01
2022-10-22T12:23:32.219Z,18.02
2022-10-22T12:26:00.565Z,17.75
2022-10-22T12:28:27.494Z,17.98
2022-10-22T12:30:54.392Z,17.99
2022-10-22T12:33:25.641Z,18.07
2022-10-22T12:35:57.679Z,18.00
2022-10-22T12:38:25.779Z,17.95
2022-10-22T12:40:58.267Z,18.05
2022-10-22T12:43:28.971Z,18.03
2022-10-22T12:46:02.075Z,18.11
2022-10-22T12:48:34.450Z,18.10
2022-10-22T12:51:04.137Z,18.10
2022-10-22T12:53:38.183Z,18.08
2022-10-22T12:56:10.957Z,18.10
2022-10-22T12:58:44.110Z,18.16
2022-10-22T13:01:13.465Z,18.21
2022-10-22T13:03:48.178Z,18.15
2022-10-22T13:06:25.697Z,18.16
2022-10-22T13:09:03.854Z,18.17
2022-10-22T13:11:39.113Z,18.14
2022-10-22T13:14:25.676Z,18.12
2022-10-22T13:17:08.308Z,18.08
2022-10-22T13:19:43.663Z,18.06
2022-10-22T13:22:37.760Z,18.05
2022-10-22T13:25:18.972Z,18.17
2022-10-22T13:27:52.325Z,18.16
2022-10-22T13:30:26.857Z,18.15
2022-10-22T13:33:06.050Z,18.05
2022-10-22T13:35:36.013Z,18.14
2022-10-22T13:38:03.881Z,18.14
2022-10-22T13:40:31.369Z,18.16
2022-10-22T13:42:58.831Z,18.22
2022-10-22T13:45:25.798Z,18.15
2022-10-22T13:47:55.123Z,18.24
2022-10-22T13:50:22.194Z,18.35
2022-10-22T13:52:55.368Z,18.26
2022-10-22T13:55:29.134Z,18.34
2022-10-22T13:58:14.008Z,18.30
2022-10-22T14:00:46.720Z,18.31
2022-10-22T14:03:17.520Z,18.28
2022-10-22T14:05:47.429Z,18.27
2022-10-22T14:08:21.254Z,18.35
2022-10-22T14:10:49.741Z,18.36
2022-10-22T14:13:18.126Z,18.28
2022-10-22T14:15:49.333Z,18.28
2022-10-22T14:18:25.529Z,18.17
2022-10-22T14:20:55.863Z,18.24
2022-10-22T14:23:27.496Z,18.29
2022-10-22T14:25:54.591Z,18.16
2022-10-22T14:28:21.628Z,18.15
2022-10-22T14:30:49.137Z,18.06
2022-10-22T14:33:22.571Z,18.07
2022-10-22T14:35:52.072Z,17.94
2022-10-22T14:38:20.333Z,18.01
2022-10-22T14:40:48.102Z,17.93
2022-10-22T14:43:27.112Z,17.78
2022-10-22T14:52:37.222Z,17.75
2022-10-22T14:55:05.646Z,17.58
2022-10-22T14:57:34.303Z,17.53
2022-10-22T15:00:02.059Z,17.55
2022-10-22T15:02:30.401Z,17.46
2022-10-22T15:07:25.329Z,17.44
2022-10-22T15:09:52.380Z,17.40
2022-10-22T15:12:20.722Z,17.33
2022-10-22T15:14:48.391Z,17.19
2022-10-22T15:17:16.959Z,17.15
2022-10-22T15:19:44.428Z,17.10
2022-10-22T15:22:14.099Z,16.99
2022-10-22T15:24:45.461Z,16.98
2022-10-22T15:27:15.535Z,17.01
2022-10-22T15:29:42.891Z,16.92
2022-10-22T15:32:13.083Z,16.97
2022-10-22T15:34:41.189Z,16.88
2022-10-22T15:37:12.311Z,16.57
2022-10-22T15:39:42.034Z,16.41
2022-10-22T15:42:10.559Z,16.30
2022-10-22T15:44:39.890Z,16.34
2022-10-22T15:47:07.916Z,16.25
2022-10-22T15:49:37.276Z,16.12
2022-10-22T15:52:06.351Z,16.05
2022-10-22T15:54:33.659Z,15.92
2022-10-22T15:57:08.466Z,15.83
2022-10-22T15:59:36.056Z,15.77
2022-10-22T16:02:03.131Z,15.85
2022-10-22T16:04:30.836Z,15.81
2022-10-22T16:06:58.031Z,15.78
2022-10-22T16:09:27.995Z,15.64
2022-10-22T16:11:55.867Z,15.81
2022-10-22T16:14:24.133Z,15.79
2022-10-22T16:16:56.281Z,15.74
2022-10-22T16:19:24.685Z,15.71
2022-10-22T16:21:54.349Z,15.87
2022-10-22T16:24:21.753Z,15.89
2022-10-22T16:26:49.257Z,15.90
2022-10-22T16:29:16.789Z,15.74
2022-10-22T16:31:45.521Z,15.46
2022-10-22T16:34:12.973Z,15.25
2022-10-22T16:36:39.937Z,15.25
2022-10-22T16:39:07.161Z,14.99
2022-10-22T16:41:35.715Z,15.09
2022-10-22T16:44:06.005Z,14.99
2022-10-22T16:46:36.708Z,15.03
2022-10-22T16:49:07.789Z,15.03
2022-10-22T16:51:35.538Z,15.05
2022-10-22T16:54:08.192Z,14.78
2022-10-22T16:56:39.500Z,14.93
2022-10-22T16:59:08.810Z,14.88
2022-10-22T17:01:40.602Z,14.83
2022-10-22T17:04:08.330Z,14.80
2022-10-22T17:06:35.644Z,14.81
2022-10-22T17:09:02.893Z,14.83
2022-10-22T17:11:35.134Z,14.77
2022-10-22T17:14:04.561Z,14.66
2022-10-22T17:16:31.652Z,14.65
2022-10-22T17:18:58.631Z,14.59
2022-10-22T17:21:25.640Z,14.52
2022-10-22T17:23:57.100Z,14.47
2022-10-22T17:26:26.582Z,14.49
2022-10-22T17:28:54.904Z,14.48
2022-10-22T17:31:23.163Z,14.55
2022-10-22T17:33:52.958Z,14.41
2022-10-22T17:36:21.900Z,14.29
2022-10-22T17:38:52.518Z,14.38
2022-10-22T17:41:26.805Z,14.28
2022-10-22T17:43:56.391Z,14.07
2022-10-22T17:46:29.060Z,14.00
2022-10-22T17:49:00.481Z,14.05
2022-10-22T17:51:28.812Z,14.04
2022-10-22T17:53:58.782Z,14.00
2022-10-22T17:56:28.051Z,13.97
2022-10-22T17:58:56.577Z,13.96
2022-10-22T18:01:25.267Z,13.90
2022-10-22T18:03:54.004Z,13.79
2022-10-22T18:06:22.044Z,13.67
2022-10-22T18:08:49.587Z,13.63
2022-10-22T18:11:19.786Z,13.73
2022-10-22T18:13:51.450Z,13.50
2022-10-22T18:16:18.751Z,13.59
2022-10-22T18:18:50.374Z,13.48
2022-10-22T18:21:19.200Z,13.45
2022-10-22T18:23:47.398Z,13.36
2022-10-22T18:26:15.811Z,13.21
2022-10-22T18:28:43.784Z,13.35
2022-10-22T18:31:13.863Z,13.31
2022-10-22T18:33:40.896Z,13.35
2022-10-22T18:36:10.475Z,13.29
2022-10-22T18:38:40.807Z,13.21
2022-10-22T18:41:09.818Z,13.22
2022-10-22T18:43:37.207Z,13.33
2022-10-22T18:46:07.193Z,13.27
2022-10-22T18:48:35.385Z,13.09
2022-10-22T18:51:08.784Z,13.27
2022-10-22T18:53:40.295Z,13.27
2022-10-22T18:56:12.188Z,13.14
2022-10-22T18:58:42.693Z,13.19
2022-10-22T19:01:34.049Z,13.22
2022-10-22T19:04:01.571Z,12.76
2022-10-22T19:06:37.616Z,13.00
2022-10-22T19:09:05.469Z,12.80
2022-10-22T19:11:32.572Z,12.76
2022-10-22T19:13:59.603Z,12.79
2022-10-22T19:16:27.249Z,12.77
2022-10-22T19:19:05.226Z,12.78
2022-10-22T19:21:33.417Z,12.69
2022-10-22T19:24:01.291Z,12.56
2022-10-22T19:26:30.267Z,12.57
2022-10-22T19:29:00.129Z,12.38
2022-10-22T19:31:32.834Z,12.51
2022-10-22T19:34:01.397Z,12.43
2022-10-22T19:36:30.276Z,12.30
2022-10-22T19:38:59.000Z,12.31
2022-10-22T19:41:28.645Z,12.42
2022-10-22T19:43:57.766Z,12.42
2022-10-22T19:46:26.382Z,12.40
2022-10-22T19:48:54.274Z,12.31
2022-10-22T19:51:23.420Z,12.33
2022-10-22T19:53:51.144Z,12.20
2022-10-22T19:56:20.310Z,12.14
2022-10-22T19:58:47.783Z,12.13
2022-10-22T20:01:17.219Z,12.12
2022-10-22T20:03:45.529Z,12.16
2022-10-22T20:06:15.944Z,12.08
2022-10-22T20:08:45.340Z,12.09
2022-10-22T20:11:18.620Z,12.13
2022-10-22T20:13:49.605Z,12.12
2022-10-22T20:16:23.252Z,12.07
2022-10-22T20:18:51.984Z,12.15
2022-10-22T20:21:21.168Z,12.20
2022-10-22T20:23:53.131Z,12.24
2022-10-22T20:26:21.385Z,12.17
2022-10-22T20:28:48.447Z,12.15
2022-10-22T20:31:22.018Z,12.08
2022-10-22T20:33:50.604Z,12.04
2022-10-22T20:36:23.857Z,12.27
2022-10-22T20:38:51.489Z,12.35
2022-10-22T20:41:21.192Z,12.47
2022-10-22T20:43:51.073Z,12.45
2022-10-22T20:46:23.520Z,12.56
2022-10-22T20:48:58.454Z,12.63
2022-10-22T20:51:25.490Z,12.65
2022-10-22T20:53:52.389Z,12.64
2022-10-22T20:56:20.137Z,12.68
2022-10-22T20:58:48.846Z,12.69
2022-10-22T21:01:21.922Z,12.45
2022-10-22T21:03:50.764Z,12.58
2022-10-22T21:06:21.016Z,12.49
2022-10-22T21:08:48.029Z,12.34
2022-10-22T21:11:15.899Z,12.30
2022-10-22T21:13:44.527Z,12.28
2022-10-22T21:16:13.662Z,12.37
2022-10-22T21:18:40.825Z,12.38
2022-10-22T21:21:09.823Z,12.32
2022-10-22T21:23:36.863Z,12.32
2022-10-22T21:26:04.647Z,11.94
2022-10-22T21:28:35.682Z,11.90
2022-10-22T21:31:07.898Z,11.55
2022-10-22T21:33:42.528Z,11.21
2022-10-22T21:36:10.183Z,11.15
2022-10-22T21:38:38.313Z,11.09
2022-10-22T21:41:11.195Z,10.94
2022-10-22T21:43:41.277Z,10.95
2022-10-22T21:46:12.903Z,11.00
2022-10-22T21:48:40.730Z,10.89
2022-10-22T21:51:09.881Z,10.71
2022-10-22T21:53:36.919Z,10.78
2022-10-22T21:56:04.835Z,10.81
2022-10-22T21:58:34.344Z,10.72
2022-10-22T22:01:01.324Z,10.87
2022-10-22T22:03:28.607Z,10.84
2022-10-22T22:06:05.604Z,10.97
2022-10-22T22:08:33.550Z,10.99
2022-10-22T22:11:06.432Z,11.00
2022-10-22T22:13:34.912Z,11.03
2022-10-22T22:16:12.976Z,11.39
2022-10-22T22:18:41.050Z,11.47
2022-10-22T22:21:11.775Z,11.45
2022-10-22T22:23:42.011Z,11.43
2022-10-22T22:26:10.238Z,11.46
2022-10-22T22:28:37.329Z,11.67
2022-10-22T22:31:21.915Z,11.60
2022-10-22T22:33:48.822Z,11.72
2022-10-22T22:36:16.732Z,11.66
2022-10-22T22:38:43.715Z,11.70
2022-10-22T22:41:10.749Z,11.62
2022-10-22T22:43:37.877Z,11.55
2022-10-22T22:46:11.753Z,11.46
2022-10-22T22:48:38.961Z,11.27
2022-10-22T22:51:07.379Z,11.23
2022-10-22T22:53:35.161Z,11.26
2022-10-22T22:56:06.829Z,11.19
2022-10-22T22:58:36.921Z,10.84
2022-10-22T23:01:13.330Z,10.88
2022-10-22T23:03:40.381Z,10.83
2022-10-22T23:06:07.803Z,10.93
2022-10-22T23:08:35.294Z,11.00
2022-10-22T23:11:04.374Z,11.14
2022-10-22T23:13:31.515Z,11.25
2022-10-22T23:16:00.072Z,11.19
2022-10-22T23:18:27.070Z,11.19
2022-10-22T23:20:54.037Z,11.02
2022-10-22T23:23:21.654Z,11.07
2022-10-22T23:25:48.733Z,11.11
2022-10-22T23:28:16.031Z,10.89
2022-10-22T23:30:45.235Z,11.00
2022-10-22T23:33:12.519Z,11.04
2022-10-22T23:35:41.950Z,11.12
2022-10-22T23:38:09.028Z,11.16
2022-10-22T23:40:36.322Z,11.22
2022-10-22T23:43:04.849Z,11.24
2022-10-22T23:45:34.451Z,11.25
2022-10-22T23:48:02.469Z,11.26
2022-10-22T23:50:29.940Z,11.21
2022-10-22T23:52:58.897Z,11.09
2022-10-22T23:55:25.768Z,11.11
2022-10-22T23:57:52.661Z,11.15
